createdAt,value
2022-07-31T00:00:43.606Z,17.55
2022-07-31T00:03:13.677Z,17.47
2022-07-31T00:05:42.685Z,17.55
2022-07-31T00:08:10.905Z,17.52
2022-07-31T00:10:39.158Z,17.41
2022-07-31T00:13:07.463Z,17.49
2022-07-31T00:15:35.407Z,17.48
2022-07-31T00:18:03.280Z,17.27
2022-07-31T00:20:32.717Z,17.44
2022-07-31T00:23:01.144Z,17.32
2022-07-31T00:25:29.190Z,17.38
2022-07-31T00:27:57.553Z,17.36
2022-07-31T00:30:25.975Z,17.30
2022-07-31T00:32:53.933Z,17.26
2022-07-31T00:35:22.263Z,17.20
2022-07-31T00:37:54.793Z,16.83
2022-07-31T00:40:30.458Z,17.06
2022-07-31T00:42:58.423Z,17.08
2022-07-31T00:45:29.314Z,16.98
2022-07-31T00:48:00.159Z,17.02
2022-07-31T00:50:28.756Z,16.99
2022-07-31T00:52:58.143Z,16.93
2022-07-31T00:55:26.260Z,16.87
2022-07-31T00:57:54.152Z,16.89
2022-07-31T01:00:23.385Z,16.86
2022-07-31T01:02:51.699Z,16.81
2022-07-31T01:05:19.914Z,16.82
2022-07-31T01:07:48.934Z,16.70
2022-07-31T01:10:35.650Z,16.82
2022-07-31T01:13:09.460Z,16.77
2022-07-31T01:15:40.178Z,16.70
2022-07-31T01:18:09.545Z,16.65
2022-07-31T01:20:40.402Z,16.61
2022-07-31T01:23:19.031Z,16.64
2022-07-31T01:26:00.188Z,16.53
2022-07-31T01:28:55.274Z,16.54
2022-07-31T01:31:31.621Z,16.58
2022-07-31T01:34:05.094Z,16.60
2022-07-31T01:36:35.842Z,16.38
2022-07-31T01:39:04.683Z,16.63
2022-07-31T01:41:39.437Z,16.64
2022-07-31T01:44:14.323Z,16.62
2022-07-31T01:46:45.957Z,16.59
2022-07-31T01:49:15.703Z,16.58
2022-07-31T01:51:45.537Z,16.56
2022-07-31T01:54:15.243Z,16.52
2022-07-31T01:56:44.791Z,16.31
2022-07-31T01:59:22.516Z,16.47
2022-07-31T02:01:54.473Z,16.42
2022-07-31T02:04:23.733Z,16.39
2022-07-31T02:06:53.484Z,16.38
2022-07-31T02:09:24.475Z,16.37
2022-07-31T02:12:04.097Z,16.37
2022-07-31T02:14:37.707Z,16.35
2022-07-31T02:17:07.795Z,16.34
2022-07-31T02:19:37.478Z,16.32
2022-07-31T02:22:06.975Z,16.30
2022-07-31T02:24:35.360Z,16.28
2022-07-31T02:27:04.467Z,16.11
2022-07-31T02:29:34.850Z,16.26
2022-07-31T02:32:05.684Z,16.23
2022-07-31T02:34:36.994Z,16.17
2022-07-31T02:37:06.065Z,16.18
2022-07-31T02:39:37.453Z,16.15
2022-07-31T02:42:06.523Z,16.13
2022-07-31T02:44:35.651Z,16.13
2022-07-31T02:47:05.562Z,16.10
2022-07-31T02:49:35.608Z,16.08
2022-07-31T02:52:05.134Z,16.07
2022-07-31T02:54:36.827Z,16.08
2022-07-31T02:57:04.998Z,16.06
2022-07-31T02:59:33.094Z,16.05
2022-07-31T03:02:01.471Z,16.03
2022-07-31T03:04:30.045Z,16.00
2022-07-31T03:07:00.534Z,15.98
2022-07-31T03:09:28.531Z,15.92
2022-07-31T03:11:56.538Z,15.70
2022-07-31T03:14:33.404Z,15.98
2022-07-31T03:17:01.875Z,15.79
2022-07-31T03:19:30.154Z,15.96
2022-07-31T03:22:00.982Z,15.93
2022-07-31T03:24:29.766Z,15.91
2022-07-31T03:26:57.622Z,15.89
2022-07-31T03:29:43.441Z,15.89
2022-07-31T03:32:12.201Z,15.90
2022-07-31T03:34:40.429Z,15.91
2022-07-31T03:37:10.336Z,15.93
2022-07-31T03:39:38.341Z,15.95
2022-07-31T03:42:08.077Z,15.85
2022-07-31T03:44:47.692Z,15.97
2022-07-31T03:47:16.487Z,16.00
2022-07-31T03:49:45.178Z,16.01
2022-07-31T03:52:14.733Z,16.04
2022-07-31T03:54:43.716Z,15.99
2022-07-31T03:57:12.743Z,16.07
2022-07-31T03:59:48.287Z,16.08
2022-07-31T04:02:17.239Z,16.10
2022-07-31T04:04:47.407Z,16.13
2022-07-31T04:07:17.208Z,16.16
2022-07-31T04:09:45.107Z,16.16
2022-07-31T04:12:13.808Z,16.19
2022-07-31T04:14:42.046Z,16.14
2022-07-31T04:17:10.350Z,16.24
2022-07-31T04:19:39.526Z,16.27
2022-07-31T04:22:09.393Z,16.29
2022-07-31T04:24:38.965Z,15.67
2022-07-31T04:27:12.207Z,16.15
2022-07-31T04:29:40.882Z,16.04
2022-07-31T04:32:08.761Z,16.43
2022-07-31T04:34:36.705Z,16.39
2022-07-31T04:37:05.201Z,16.59
2022-07-31T04:39:33.136Z,16.65
2022-07-31T04:42:02.721Z,16.70
2022-07-31T04:44:31.522Z,16.75
2022-07-31T04:47:03.414Z,16.68
2022-07-31T04:49:33.051Z,16.85
2022-07-31T04:52:01.536Z,16.83
2022-07-31T04:54:29.879Z,16.93
2022-07-31T04:56:58.160Z,16.90
2022-07-31T05:00:00.507Z,17.00
2022-07-31T05:02:15.865Z,17.04
2022-07-31T05:04:43.822Z,17.02
2022-07-31T05:07:11.714Z,17.10
2022-07-31T05:09:39.678Z,17.15
2022-07-31T05:12:08.298Z,17.20
2022-07-31T05:14:37.568Z,17.09
2022-07-31T05:17:05.992Z,17.26
2022-07-31T05:19:33.899Z,17.04
2022-07-31T05:22:02.627Z,17.28
2022-07-31T05:24:33.229Z,17.44
2022-07-31T05:27:01.995Z,17.49
2022-07-31T05:29:30.132Z,17.55
2022-07-31T05:32:00.943Z,17.62
2022-07-31T05:34:30.774Z,17.67
2022-07-31T05:36:59.122Z,17.67
2022-07-31T05:39:28.330Z,17.81
2022-07-31T05:41:56.273Z,17.90
2022-07-31T05:44:24.706Z,17.97
2022-07-31T05:49:22.416Z,18.10
2022-07-31T05:51:54.315Z,18.15
2022-07-31T05:54:22.556Z,18.25
2022-07-31T05:56:50.468Z,18.33
2022-07-31T05:59:18.706Z,18.42
2022-07-31T06:01:47.672Z,18.50
2022-07-31T06:04:15.568Z,18.56
2022-07-31T06:06:45.002Z,18.61
2022-07-31T06:09:12.980Z,18.59
2022-07-31T06:11:40.878Z,18.67
2022-07-31T06:14:09.666Z,18.84
2022-07-31T06:16:37.591Z,18.91
2022-07-31T06:19:05.531Z,18.99
2022-07-31T06:21:33.479Z,19.07
2022-07-31T06:24:02.777Z,19.12
2022-07-31T06:26:31.475Z,19.11
2022-07-31T06:28:59.528Z,19.25
2022-07-31T06:31:27.566Z,19.31
2022-07-31T06:33:55.625Z,19.39
2022-07-31T06:36:23.600Z,19.37
2022-07-31T06:38:51.671Z,19.53
2022-07-31T06:41:35.057Z,19.64
2022-07-31T06:44:03.137Z,19.63
2022-07-31T06:46:31.209Z,19.79
2022-07-31T06:48:59.361Z,19.88
2022-07-31T06:51:31.954Z,19.37
2022-07-31T06:54:00.662Z,20.11
2022-07-31T06:56:30.709Z,20.20
2022-07-31T06:58:58.745Z,20.25
2022-07-31T07:01:27.068Z,20.32
2022-07-31T07:03:55.412Z,20.39
2022-07-31T07:06:24.169Z,20.52
2022-07-31T07:08:52.827Z,20.66
2022-07-31T07:11:20.889Z,20.50
2022-07-31T07:13:50.859Z,20.90
2022-07-31T07:16:19.146Z,21.03
2022-07-31T07:18:47.135Z,21.15
2022-07-31T07:21:15.321Z,21.33
2022-07-31T07:23:43.394Z,21.54
2022-07-31T07:26:11.571Z,21.80
2022-07-31T07:28:39.828Z,22.11
2022-07-31T07:31:09.408Z,22.54
2022-07-31T07:33:40.789Z,23.18
2022-07-31T07:36:23.341Z,23.80
2022-07-31T07:38:53.710Z,24.37
2022-07-31T07:41:23.753Z,25.17
2022-07-31T07:43:52.629Z,25.41
2022-07-31T07:46:22.810Z,25.80
2022-07-31T07:48:51.768Z,26.28
2022-07-31T07:51:21.361Z,26.34
2022-07-31T07:53:49.839Z,26.05
2022-07-31T07:56:17.954Z,26.18
2022-07-31T07:58:45.837Z,26.37
2022-07-31T08:01:13.798Z,26.59
2022-07-31T08:03:49.838Z,26.79
2022-07-31T08:06:20.336Z,27.20
2022-07-31T08:08:48.713Z,27.16
2022-07-31T08:11:17.072Z,27.39
2022-07-31T08:13:50.199Z,27.18
2022-07-31T08:16:19.268Z,27.45
2022-07-31T08:18:48.921Z,28.07
2022-07-31T08:21:17.007Z,28.02
2022-07-31T08:23:45.255Z,27.97
2022-07-31T08:26:14.047Z,27.79
2022-07-31T08:28:50.464Z,27.63
2022-07-31T08:31:19.727Z,27.65
2022-07-31T08:33:49.087Z,27.45
2022-07-31T08:36:17.075Z,27.31
2022-07-31T08:38:45.357Z,27.82
2022-07-31T08:41:14.703Z,27.55
2022-07-31T08:44:01.409Z,27.53
2022-07-31T08:46:33.672Z,27.14
2022-07-31T08:49:04.500Z,27.65
2022-07-31T08:51:51.078Z,27.63
2022-07-31T08:54:21.937Z,27.64
2022-07-31T08:56:52.662Z,27.74
2022-07-31T08:59:22.139Z,28.24
2022-07-31T09:01:50.418Z,27.97
2022-07-31T09:04:19.988Z,27.65
2022-07-31T09:06:47.874Z,27.05
2022-07-31T09:09:17.935Z,27.14
2022-07-31T09:11:49.531Z,27.36
2022-07-31T09:14:27.004Z,27.44
2022-07-31T09:16:55.358Z,27.34
2022-07-31T09:19:52.199Z,27.47
2022-07-31T09:22:24.403Z,27.58
2022-07-31T09:24:53.281Z,27.95
2022-07-31T09:27:28.820Z,28.15
2022-07-31T09:29:57.878Z,27.79
2022-07-31T09:32:25.723Z,28.17
2022-07-31T09:34:55.211Z,28.20
2022-07-31T09:37:27.377Z,28.30
2022-07-31T09:39:57.443Z,28.25
2022-07-31T09:42:37.265Z,27.83
2022-07-31T09:45:17.393Z,27.73
2022-07-31T09:47:45.443Z,27.64
2022-07-31T09:50:15.354Z,27.78
2022-07-31T09:52:43.456Z,28.13
2022-07-31T09:55:16.986Z,28.33
2022-07-31T09:57:53.797Z,28.01
2022-07-31T10:00:24.541Z,28.20
2022-07-31T10:02:55.389Z,28.18
2022-07-31T10:05:26.805Z,28.33
2022-07-31T10:07:57.386Z,28.41
2022-07-31T10:10:25.978Z,28.11
2022-07-31T10:12:56.602Z,28.50
2022-07-31T10:15:27.214Z,28.63
2022-07-31T10:17:56.206Z,28.09
2022-07-31T10:20:26.020Z,27.84
2022-07-31T10:22:57.201Z,27.86
2022-07-31T10:25:28.037Z,27.97
2022-07-31T10:27:57.770Z,27.66
2022-07-31T10:30:28.368Z,27.83
2022-07-31T10:35:27.435Z,28.05
2022-07-31T10:38:02.586Z,28.39
2022-07-31T10:40:37.137Z,28.18
2022-07-31T10:43:19.954Z,27.77
2022-07-31T10:45:49.347Z,27.71
2022-07-31T10:48:17.594Z,27.89
2022-07-31T10:50:47.457Z,28.60
2022-07-31T10:53:17.621Z,28.97
2022-07-31T10:55:46.186Z,29.26
2022-07-31T10:58:15.823Z,29.28
2022-07-31T11:00:45.497Z,29.30
2022-07-31T11:03:15.770Z,29.49
2022-07-31T11:06:02.322Z,29.71
2022-07-31T11:08:42.121Z,29.78
2022-07-31T11:11:11.599Z,29.83
2022-07-31T11:13:50.393Z,30.01
2022-07-31T11:16:19.340Z,30.61
2022-07-31T11:18:58.131Z,30.47
2022-07-31T11:21:39.026Z,29.71
2022-07-31T11:24:14.661Z,28.93
2022-07-31T11:26:52.341Z,29.02
2022-07-31T11:29:59.109Z,29.34
2022-07-31T11:32:25.401Z,30.04
2022-07-31T11:34:55.707Z,30.31
2022-07-31T11:37:35.309Z,30.13
2022-07-31T11:40:15.346Z,29.99
2022-07-31T11:42:46.469Z,29.90
2022-07-31T11:45:18.648Z,29.80
2022-07-31T11:48:12.763Z,29.83
2022-07-31T11:50:41.329Z,29.77
2022-07-31T11:53:10.973Z,30.14
2022-07-31T11:55:46.521Z,30.71
2022-07-31T11:58:16.989Z,30.50
2022-07-31T12:00:49.665Z,30.48
2022-07-31T12:03:19.185Z,30.39
2022-07-31T12:05:48.284Z,30.16
2022-07-31T12:08:18.391Z,30.11
2022-07-31T12:10:47.671Z,30.33
2022-07-31T12:13:17.010Z,30.14
2022-07-31T12:15:59.423Z,30.40
2022-07-31T12:18:28.262Z,30.25
2022-07-31T12:20:58.224Z,30.31
2022-07-31T12:23:38.475Z,31.06
2022-07-31T12:26:09.541Z,31.44
2022-07-31T12:28:37.815Z,31.65
2022-07-31T12:31:05.766Z,32.01
2022-07-31T12:33:42.043Z,32.00
2022-07-31T12:36:17.594Z,31.71
2022-07-31T12:38:49.100Z,31.78
2022-07-31T12:41:17.593Z,31.58
2022-07-31T12:43:51.255Z,31.88
2022-07-31T12:46:24.180Z,31.96
2022-07-31T12:48:52.321Z,31.88
2022-07-31T12:51:44.038Z,32.12
2022-07-31T12:54:11.162Z,31.67
2022-07-31T12:56:40.854Z,31.82
2022-07-31T12:59:09.849Z,31.78
2022-07-31T13:01:38.357Z,31.89
2022-07-31T13:04:07.861Z,32.53
2022-07-31T13:06:48.858Z,32.75
2022-07-31T13:09:18.517Z,32.08
2022-07-31T13:11:48.746Z,31.87
2022-07-31T13:14:17.720Z,31.69
2022-07-31T13:16:45.832Z,31.54
2022-07-31T13:19:14.072Z,31.49
2022-07-31T13:21:49.648Z,31.93
2022-07-31T13:24:20.488Z,32.42
2022-07-31T13:26:49.347Z,32.63
2022-07-31T13:29:18.293Z,32.85
2022-07-31T13:31:46.723Z,33.42
2022-07-31T13:34:14.930Z,33.40
2022-07-31T13:36:42.994Z,33.27
2022-07-31T13:39:11.189Z,32.86
2022-07-31T13:41:41.926Z,33.18
2022-07-31T13:44:10.126Z,33.13
2022-07-31T13:46:38.273Z,33.17
2022-07-31T13:49:09.101Z,33.16
2022-07-31T13:51:37.698Z,33.16
2022-07-31T13:54:05.877Z,33.27
2022-07-31T13:56:39.387Z,33.24
2022-07-31T13:59:12.829Z,33.34
2022-07-31T14:02:04.461Z,33.54
2022-07-31T14:04:32.263Z,33.03
2022-07-31T14:07:03.516Z,32.61
2022-07-31T14:09:34.274Z,33.33
2022-07-31T14:12:04.599Z,33.15
2022-07-31T14:14:34.844Z,33.06
2022-07-31T14:17:02.977Z,33.43
2022-07-31T14:19:43.843Z,33.24
2022-07-31T14:22:14.248Z,33.05
2022-07-31T14:24:49.352Z,32.28
2022-07-31T14:27:19.791Z,33.74
2022-07-31T14:29:49.318Z,33.95
2022-07-31T14:32:17.310Z,34.21
2022-07-31T14:34:45.697Z,33.84
2022-07-31T14:37:13.682Z,33.84
2022-07-31T14:39:42.771Z,34.14
2022-07-31T14:42:11.466Z,34.56
2022-07-31T14:44:42.363Z,33.55
2022-07-31T14:47:12.793Z,33.24
2022-07-31T14:50:08.826Z,33.16
2022-07-31T14:52:29.773Z,31.40
2022-07-31T14:54:59.141Z,30.74
2022-07-31T14:57:27.239Z,30.81
2022-07-31T14:59:55.640Z,31.06
2022-07-31T15:02:24.996Z,31.46
2022-07-31T15:04:53.423Z,31.29
2022-07-31T15:07:41.133Z,31.39
2022-07-31T15:10:11.600Z,31.38
2022-07-31T15:12:40.163Z,31.50
2022-07-31T15:15:09.128Z,31.83
2022-07-31T15:17:38.406Z,31.77
2022-07-31T15:20:07.362Z,32.26
2022-07-31T15:22:35.283Z,32.67
2022-07-31T15:25:03.183Z,32.78
2022-07-31T15:27:31.389Z,32.80
2022-07-31T15:30:03.454Z,33.04
2022-07-31T15:32:34.711Z,32.53
2022-07-31T15:35:04.675Z,32.27
2022-07-31T15:37:35.088Z,32.02
2022-07-31T15:40:05.155Z,31.99
2022-07-31T15:42:34.053Z,31.94
2022-07-31T15:45:01.944Z,32.47
2022-07-31T15:47:30.024Z,32.52
2022-07-31T15:49:57.989Z,32.13
2022-07-31T15:52:27.369Z,32.52
2022-07-31T15:54:55.554Z,32.52
2022-07-31T15:57:24.401Z,32.54
2022-07-31T15:59:55.345Z,32.51
2022-07-31T16:02:24.777Z,32.44
2022-07-31T16:04:55.654Z,31.79
2022-07-31T16:08:32.666Z,31.56
2022-07-31T16:10:18.333Z,31.47
2022-07-31T16:12:47.585Z,30.83
2022-07-31T16:15:16.320Z,30.98
2022-07-31T16:17:45.372Z,31.12
2022-07-31T16:20:26.416Z,31.22
2022-07-31T16:22:58.726Z,30.79
2022-07-31T16:25:27.397Z,31.01
2022-07-31T16:27:55.625Z,31.37
2022-07-31T16:30:26.274Z,31.53
2022-07-31T16:32:55.171Z,31.37
2022-07-31T16:35:26.138Z,30.91
2022-07-31T16:37:54.290Z,30.96
2022-07-31T16:40:30.270Z,30.59
2022-07-31T16:43:00.874Z,30.49
2022-07-31T16:45:30.131Z,30.31
2022-07-31T16:47:58.354Z,29.67
2022-07-31T16:50:26.491Z,29.94
2022-07-31T16:52:55.386Z,30.36
2022-07-31T16:55:59.539Z,30.29
2022-07-31T16:58:15.904Z,30.13
2022-07-31T17:00:43.851Z,29.73
2022-07-31T17:03:31.034Z,29.72
2022-07-31T17:05:59.990Z,29.59
2022-07-31T17:08:28.920Z,28.84
2022-07-31T17:10:58.150Z,28.50
2022-07-31T17:13:26.843Z,27.54
2022-07-31T17:15:54.750Z,27.12
2022-07-31T17:18:25.400Z,26.57
2022-07-31T17:20:55.834Z,26.03
2022-07-31T17:23:42.625Z,25.30
2022-07-31T17:26:21.055Z,24.57
2022-07-31T17:28:50.216Z,24.11
2022-07-31T17:31:18.998Z,23.82
2022-07-31T17:33:59.585Z,23.67
2022-07-31T17:36:30.184Z,23.32
2022-07-31T17:38:58.254Z,23.08
2022-07-31T17:41:27.641Z,23.01
2022-07-31T17:43:56.111Z,22.79
2022-07-31T17:46:34.492Z,22.92
2022-07-31T17:49:04.889Z,22.79
2022-07-31T17:51:33.206Z,22.63
2022-07-31T17:54:01.148Z,22.46
2022-07-31T17:56:30.788Z,22.36
2022-07-31T17:59:04.500Z,22.24
2022-07-31T18:01:34.232Z,22.14
2022-07-31T18:04:02.749Z,21.81
2022-07-31T18:06:30.723Z,21.93
2022-07-31T18:08:59.269Z,22.02
2022-07-31T18:11:27.463Z,21.90
2022-07-31T18:14:03.036Z,21.72
2022-07-31T18:16:31.938Z,21.71
2022-07-31T18:18:59.856Z,21.64
2022-07-31T18:21:27.832Z,21.34
2022-07-31T18:23:55.913Z,21.42
2022-07-31T18:26:24.176Z,21.47
2022-07-31T18:28:52.042Z,21.38
2022-07-31T18:31:34.331Z,21.47
2022-07-31T18:34:03.706Z,21.42
2022-07-31T18:36:31.962Z,21.10
2022-07-31T18:38:59.985Z,21.36
2022-07-31T18:41:28.281Z,21.33
2022-07-31T18:43:56.537Z,21.27
2022-07-31T18:46:25.830Z,21.18
2022-07-31T18:48:55.780Z,21.12
2022-07-31T18:51:24.897Z,21.07
2022-07-31T18:53:54.487Z,21.01
2022-07-31T18:56:23.148Z,20.95
2022-07-31T18:58:51.923Z,20.89
2022-07-31T19:01:20.028Z,20.76
2022-07-31T19:03:49.465Z,20.77
2022-07-31T19:06:17.774Z,20.69
2022-07-31T19:08:46.128Z,20.59
2022-07-31T19:11:14.044Z,20.52
2022-07-31T19:13:42.089Z,20.44
2022-07-31T19:16:09.990Z,20.25
2022-07-31T19:18:40.285Z,20.33
2022-07-31T19:21:16.758Z,20.24
2022-07-31T19:23:51.039Z,19.95
2022-07-31T19:26:19.149Z,20.01
2022-07-31T19:28:47.472Z,20.07
2022-07-31T19:31:15.529Z,19.97
2022-07-31T19:33:43.747Z,19.91
2022-07-31T19:36:14.330Z,19.87
2022-07-31T19:38:44.501Z,19.72
2022-07-31T19:41:13.763Z,19.82
2022-07-31T19:43:44.709Z,19.51
2022-07-31T19:46:13.102Z,19.70
2022-07-31T19:48:42.398Z,19.67
2022-07-31T19:51:10.902Z,18.86
2022-07-31T19:53:41.927Z,19.55
2022-07-31T19:56:10.447Z,19.59
2022-07-31T19:58:41.259Z,19.56
2022-07-31T20:01:10.660Z,19.54
2022-07-31T20:03:38.891Z,19.52
2022-07-31T20:06:07.235Z,19.44
2022-07-31T20:08:35.306Z,19.37
2022-07-31T20:11:07.689Z,19.38
2022-07-31T20:13:37.885Z,19.26
2022-07-31T20:16:08.418Z,19.33
2022-07-31T20:18:36.420Z,19.22
2022-07-31T20:21:07.976Z,19.26
2022-07-31T20:23:38.344Z,19.21
2022-07-31T20:26:09.404Z,18.91
2022-07-31T20:28:40.337Z,19.09
2022-07-31T20:31:08.422Z,19.04
2022-07-31T20:33:48.891Z,19.03
2022-07-31T20:36:26.952Z,18.86
2022-07-31T20:38:55.080Z,18.78
2022-07-31T20:41:26.289Z,18.98
2022-07-31T20:43:54.283Z,18.95
2022-07-31T20:46:22.583Z,18.95
2022-07-31T20:48:50.979Z,18.91
2022-07-31T20:51:20.709Z,18.91
2022-07-31T20:53:49.085Z,18.91
2022-07-31T20:56:20.255Z,18.83
2022-07-31T20:58:51.938Z,18.78
2022-07-31T21:01:21.226Z,18.65
2022-07-31T21:03:49.644Z,18.88
2022-07-31T21:06:18.047Z,18.59
2022-07-31T21:08:46.555Z,18.84
2022-07-31T21:11:14.524Z,18.83
2022-07-31T21:13:43.381Z,18.83
2022-07-31T21:16:13.174Z,18.81
2022-07-31T21:18:43.231Z,18.56
2022-07-31T21:21:11.936Z,18.68
2022-07-31T21:23:40.078Z,18.77
2022-07-31T21:26:08.838Z,17.94
2022-07-31T21:28:37.641Z,18.64
2022-07-31T21:31:06.241Z,18.66
2022-07-31T21:33:36.140Z,18.64
2022-07-31T21:36:06.044Z,18.62
2022-07-31T21:38:36.657Z,18.59
2022-07-31T21:41:04.944Z,18.59
2022-07-31T21:43:45.803Z,18.59
2022-07-31T21:46:23.270Z,18.58
2022-07-31T21:48:53.808Z,18.56
2022-07-31T21:51:24.514Z,18.53
2022-07-31T21:53:52.417Z,18.47
2022-07-31T21:56:20.366Z,18.53
2022-07-31T21:58:48.593Z,18.43
2022-07-31T22:01:16.583Z,18.48
2022-07-31T22:03:44.638Z,18.45
2022-07-31T22:06:31.493Z,18.45
2022-07-31T22:08:59.536Z,18.36
2022-07-31T22:11:27.598Z,18.37
2022-07-31T22:13:55.572Z,18.36
2022-07-31T22:16:23.905Z,18.33
2022-07-31T22:18:52.386Z,18.26
2022-07-31T22:21:22.177Z,18.26
2022-07-31T22:23:50.522Z,18.26
2022-07-31T22:26:18.645Z,18.25
2022-07-31T22:28:48.249Z,18.22
2022-07-31T22:31:16.864Z,18.21
2022-07-31T22:33:45.060Z,18.19
2022-07-31T22:36:13.354Z,18.18
2022-07-31T22:38:44.238Z,18.16
2022-07-31T22:41:13.501Z,18.15
2022-07-31T22:44:09.405Z,18.03
2022-07-31T22:46:32.485Z,18.10
2022-07-31T22:49:03.338Z,18.07
2022-07-31T22:51:34.420Z,17.99
2022-07-31T22:54:06.301Z,17.98
2022-07-31T22:56:34.213Z,17.95
2022-07-31T22:59:02.170Z,17.93
2022-07-31T23:01:30.438Z,17.89
2022-07-31T23:03:58.330Z,17.88
2022-07-31T23:06:30.783Z,17.84
2022-07-31T23:09:01.181Z,17.88
2022-07-31T23:11:30.800Z,17.80
2022-07-31T23:13:59.276Z,17.81
2022-07-31T23:16:28.113Z,17.78
2022-07-31T23:18:56.581Z,17.80
2022-07-31T23:21:24.604Z,17.79
2022-07-31T23:23:53.274Z,17.56
2022-07-31T23:26:23.974Z,17.74
2022-07-31T23:28:54.940Z,17.73
2022-07-31T23:31:25.267Z,17.73
2022-07-31T23:33:53.783Z,17.51
2022-07-31T23:36:26.926Z,17.71
2022-07-31T23:38:54.979Z,17.58
2022-07-31T23:41:37.118Z,17.71
2022-07-31T23:44:10.688Z,17.68
2022-07-31T23:46:40.419Z,17.67
2022-07-31T23:49:08.869Z,17.65
2022-07-31T23:51:36.806Z,17.48
2022-07-31T23:54:06.386Z,17.47
2022-07-31T23:56:34.474Z,17.49
2022-07-31T23:59:02.340Z,17.45
